sensor_id;sensor_type;location;lat;lon;timestamp;P1;durP1;ratioP1;P2;durP2;ratioP2
78674;SDS011;67990;59.826;30.108;2023-04-30T00:02:20;3.00;;;0.50;;
78674;SDS011;67990;59.826;30.108;2023-04-30T00:05:05;3.08;;;0.30;;
78674;SDS011;67990;59.826;30.108;2023-04-30T00:07:32;3.22;;;0.40;;
78674;SDS011;67990;59.826;30.108;2023-04-30T00:10:18;2.77;;;0.40;;
78674;SDS011;67990;59.826;30.108;2023-04-30T00:13:03;1.85;;;0.30;;
78674;SDS011;67990;59.826;30.108;2023-04-30T00:15:30;2.03;;;0.38;;
78674;SDS011;67990;59.826;30.108;2023-04-30T00:17:59;1.90;;;0.30;;
78674;SDS011;67990;59.826;30.108;2023-04-30T00:20:25;2.75;;;0.40;;
78674;SDS011;67990;59.826;30.108;2023-04-30T00:22:53;3.70;;;0.40;;
78674;SDS011;67990;59.826;30.108;2023-04-30T00:25:20;2.75;;;0.20;;
78674;SDS011;67990;59.826;30.108;2023-04-30T00:27:49;2.60;;;0.40;;
78674;SDS011;67990;59.826;30.108;2023-04-30T00:30:16;2.20;;;0.20;;
78674;SDS011;67990;59.826;30.108;2023-04-30T00:32:43;2.72;;;0.40;;
78674;SDS011;67990;59.826;30.108;2023-04-30T00:35:12;2.10;;;0.40;;
78674;SDS011;67990;59.826;30.108;2023-04-30T00:37:40;2.50;;;0.30;;
78674;SDS011;67990;59.826;30.108;2023-04-30T00:40:07;2.20;;;0.22;;
78674;SDS011;67990;59.826;30.108;2023-04-30T00:42:35;9.45;;;0.30;;
78674;SDS011;67990;59.826;30.108;2023-04-30T00:45:02;2.33;;;0.30;;
78674;SDS011;67990;59.826;30.108;2023-04-30T00:47:30;1.67;;;0.27;;
78674;SDS011;67990;59.826;30.108;2023-04-30T00:49:58;2.85;;;0.35;;
78674;SDS011;67990;59.826;30.108;2023-04-30T00:52:27;2.25;;;0.30;;
78674;SDS011;67990;59.826;30.108;2023-04-30T00:57:58;2.70;;;0.30;;
78674;SDS011;67990;59.826;30.108;2023-04-30T01:00:43;2.10;;;0.20;;
78674;SDS011;67990;59.826;30.108;2023-04-30T01:03:11;2.10;;;0.30;;
78674;SDS011;67990;59.826;30.108;2023-04-30T01:05:39;3.97;;;0.57;;
78674;SDS011;67990;59.826;30.108;2023-04-30T01:08:08;3.17;;;0.40;;
78674;SDS011;67990;59.826;30.108;2023-04-30T01:10:39;1.90;;;0.30;;
78674;SDS011;67990;59.826;30.108;2023-04-30T01:16:14;1.75;;;0.20;;
78674;SDS011;67990;59.826;30.108;2023-04-30T01:18:46;2.53;;;0.32;;
78674;SDS011;67990;59.826;30.108;2023-04-30T01:21:17;1.92;;;0.30;;
78674;SDS011;67990;59.826;30.108;2023-04-30T01:23:59;1.65;;;0.20;;
78674;SDS011;67990;59.826;30.108;2023-04-30T01:27:08;2.20;;;0.30;;
78674;SDS011;67990;59.826;30.108;2023-04-30T01:29:50;2.05;;;0.28;;
78674;SDS011;67990;59.826;30.108;2023-04-30T01:32:19;2.25;;;0.30;;
78674;SDS011;67990;59.826;30.108;2023-04-30T01:35:04;3.33;;;0.40;;
78674;SDS011;67990;59.826;30.108;2023-04-30T01:37:33;3.05;;;0.30;;
78674;SDS011;67990;59.826;30.108;2023-04-30T01:40:26;3.83;;;0.37;;
78674;SDS011;67990;59.826;30.108;2023-04-30T01:43:03;3.65;;;0.40;;
78674;SDS011;67990;59.826;30.108;2023-04-30T01:48:31;1.92;;;0.30;;
78674;SDS011;67990;59.826;30.108;2023-04-30T01:51:13;2.08;;;0.30;;
78674;SDS011;67990;59.826;30.108;2023-04-30T01:53:45;2.60;;;0.30;;
78674;SDS011;67990;59.826;30.108;2023-04-30T01:56:50;2.33;;;0.40;;
78674;SDS011;67990;59.826;30.108;2023-04-30T01:59:29;1.80;;;0.28;;
78674;SDS011;67990;59.826;30.108;2023-04-30T02:01:58;3.00;;;0.40;;
78674;SDS011;67990;59.826;30.108;2023-04-30T02:04:26;3.30;;;0.30;;
78674;SDS011;67990;59.826;30.108;2023-04-30T02:06:53;3.20;;;0.20;;
78674;SDS011;67990;59.826;30.108;2023-04-30T02:09:20;3.47;;;0.40;;
78674;SDS011;67990;59.826;30.108;2023-04-30T02:12:06;2.85;;;0.32;;
78674;SDS011;67990;59.826;30.108;2023-04-30T02:17:22;2.85;;;0.40;;
78674;SDS011;67990;59.826;30.108;2023-04-30T02:19:49;2.77;;;0.40;;
78674;SDS011;67990;59.826;30.108;2023-04-30T02:22:16;1.55;;;0.20;;
78674;SDS011;67990;59.826;30.108;2023-04-30T02:25:00;2.92;;;0.40;;
78674;SDS011;67990;59.826;30.108;2023-04-30T02:27:29;2.20;;;0.30;;
78674;SDS011;67990;59.826;30.108;2023-04-30T02:30:15;2.97;;;0.40;;
78674;SDS011;67990;59.826;30.108;2023-04-30T02:32:47;2.67;;;0.40;;
78674;SDS011;67990;59.826;30.108;2023-04-30T02:35:14;2.78;;;0.30;;
78674;SDS011;67990;59.826;30.108;2023-04-30T02:37:59;3.45;;;0.38;;
78674;SDS011;67990;59.826;30.108;2023-04-30T02:40:26;2.10;;;0.30;;
78674;SDS011;67990;59.826;30.108;2023-04-30T02:43:12;3.45;;;0.40;;
78674;SDS011;67990;59.826;30.108;2023-04-30T02:45:38;2.53;;;0.40;;
78674;SDS011;67990;59.826;30.108;2023-04-30T02:51:10;5.45;;;0.60;;
78674;SDS011;67990;59.826;30.108;2023-04-30T02:53:37;2.20;;;0.30;;
78674;SDS011;67990;59.826;30.108;2023-04-30T02:56:23;4.25;;;0.60;;
78674;SDS011;67990;59.826;30.108;2023-04-30T02:58:50;2.80;;;0.40;;
78674;SDS011;67990;59.826;30.108;2023-04-30T03:01:35;2.00;;;0.30;;
78674;SDS011;67990;59.826;30.108;2023-04-30T03:04:04;3.10;;;0.60;;
78674;SDS011;67990;59.826;30.108;2023-04-30T03:06:49;2.90;;;0.43;;
78674;SDS011;67990;59.826;30.108;2023-04-30T03:09:16;4.00;;;0.80;;
78674;SDS011;67990;59.826;30.108;2023-04-30T03:11:43;8.83;;;0.57;;
78674;SDS011;67990;59.826;30.108;2023-04-30T03:14:10;2.60;;;0.40;;
78674;SDS011;67990;59.826;30.108;2023-04-30T03:16:55;3.85;;;0.65;;
78674;SDS011;67990;59.826;30.108;2023-04-30T03:25:14;3.53;;;0.43;;
78674;SDS011;67990;59.826;30.108;2023-04-30T03:27:41;4.93;;;0.50;;
78674;SDS011;67990;59.826;30.108;2023-04-30T03:30:08;4.25;;;0.70;;
78674;SDS011;67990;59.826;30.108;2023-04-30T03:35:41;2.40;;;0.50;;
78674;SDS011;67990;59.826;30.108;2023-04-30T03:38:08;2.57;;;0.30;;
78674;SDS011;67990;59.826;30.108;2023-04-30T03:40:35;4.30;;;0.40;;
78674;SDS011;67990;59.826;30.108;2023-04-30T03:43:02;3.97;;;0.65;;
78674;SDS011;67990;59.826;30.108;2023-04-30T03:48:32;3.60;;;0.60;;
78674;SDS011;67990;59.826;30.108;2023-04-30T03:51:00;4.07;;;0.50;;
78674;SDS011;67990;59.826;30.108;2023-04-30T03:53:28;2.40;;;0.40;;
78674;SDS011;67990;59.826;30.108;2023-04-30T03:55:55;2.92;;;0.60;;
78674;SDS011;67990;59.826;30.108;2023-04-30T03:58:23;8.30;;;2.35;;
78674;SDS011;67990;59.826;30.108;2023-04-30T04:01:08;6.72;;;3.08;;
78674;SDS011;67990;59.826;30.108;2023-04-30T04:03:36;8.20;;;3.80;;
78674;SDS011;67990;59.826;30.108;2023-04-30T04:06:05;10.00;;;3.78;;
78674;SDS011;67990;59.826;30.108;2023-04-30T04:08:49;2.83;;;0.60;;
78674;SDS011;67990;59.826;30.108;2023-04-30T04:11:16;3.13;;;0.75;;
78674;SDS011;67990;59.826;30.108;2023-04-30T04:13:43;3.22;;;1.00;;
78674;SDS011;67990;59.826;30.108;2023-04-30T04:18:57;4.32;;;0.80;;
78674;SDS011;67990;59.826;30.108;2023-04-30T04:21:26;2.85;;;0.73;;
78674;SDS011;67990;59.826;30.108;2023-04-30T04:23:54;4.93;;;1.15;;
78674;SDS011;67990;59.826;30.108;2023-04-30T04:27:16;4.97;;;1.48;;
78674;SDS011;67990;59.826;30.108;2023-04-30T04:29:44;6.57;;;1.40;;
78674;SDS011;67990;59.826;30.108;2023-04-30T04:32:12;9.25;;;3.72;;
78674;SDS011;67990;59.826;30.108;2023-04-30T04:34:40;4.35;;;1.23;;
78674;SDS011;67990;59.826;30.108;2023-04-30T04:37:26;10.63;;;4.15;;
78674;SDS011;67990;59.826;30.108;2023-04-30T04:40:12;16.05;;;3.47;;
78674;SDS011;67990;59.826;30.108;2023-04-30T04:46:03;5.85;;;1.27;;
78674;SDS011;67990;59.826;30.108;2023-04-30T04:48:30;8.65;;;2.60;;
78674;SDS011;67990;59.826;30.108;2023-04-30T04:53:45;5.43;;;1.15;;
78674;SDS011;67990;59.826;30.108;2023-04-30T04:56:12;7.20;;;2.43;;
78674;SDS011;67990;59.826;30.108;2023-04-30T04:58:40;15.40;;;4.05;;
78674;SDS011;67990;59.826;30.108;2023-04-30T05:01:08;12.60;;;3.38;;
78674;SDS011;67990;59.826;30.108;2023-04-30T05:03:54;5.13;;;1.73;;
78674;SDS011;67990;59.826;30.108;2023-04-30T05:06:38;3.92;;;0.80;;
78674;SDS011;67990;59.826;30.108;2023-04-30T05:09:08;6.57;;;1.30;;
78674;SDS011;67990;59.826;30.108;2023-04-30T05:11:35;13.82;;;3.38;;
78674;SDS011;67990;59.826;30.108;2023-04-30T05:14:21;4.80;;;1.38;;
78674;SDS011;67990;59.826;30.108;2023-04-30T05:16:49;9.25;;;1.60;;
78674;SDS011;67990;59.826;30.108;2023-04-30T05:22:01;8.10;;;1.47;;
78674;SDS011;67990;59.826;30.108;2023-04-30T05:24:30;5.57;;;0.90;;
78674;SDS011;67990;59.826;30.108;2023-04-30T05:26:57;6.25;;;1.30;;
78674;SDS011;67990;59.826;30.108;2023-04-30T05:29:43;7.63;;;2.13;;
78674;SDS011;67990;59.826;30.108;2023-04-30T05:32:27;9.48;;;2.30;;
78674;SDS011;67990;59.826;30.108;2023-04-30T05:34:55;5.90;;;1.30;;
78674;SDS011;67990;59.826;30.108;2023-04-30T05:37:22;5.60;;;1.40;;
78674;SDS011;67990;59.826;30.108;2023-04-30T05:39:50;6.50;;;1.95;;
78674;SDS011;67990;59.826;30.108;2023-04-30T05:42:18;7.72;;;2.30;;
78674;SDS011;67990;59.826;30.108;2023-04-30T05:44:46;10.63;;;2.70;;
78674;SDS011;67990;59.826;30.108;2023-04-30T05:47:32;13.70;;;3.40;;
78674;SDS011;67990;59.826;30.108;2023-04-30T05:49:59;6.60;;;1.10;;
78674;SDS011;67990;59.826;30.108;2023-04-30T05:52:26;9.70;;;2.75;;
78674;SDS011;67990;59.826;30.108;2023-04-30T05:54:55;7.53;;;2.72;;
78674;SDS011;67990;59.826;30.108;2023-04-30T05:57:41;5.50;;;2.72;;
78674;SDS011;67990;59.826;30.108;2023-04-30T06:03:30;7.40;;;2.90;;
78674;SDS011;67990;59.826;30.108;2023-04-30T06:06:14;8.38;;;2.75;;
78674;SDS011;67990;59.826;30.108;2023-04-30T06:08:42;10.82;;;3.60;;
78674;SDS011;67990;59.826;30.108;2023-04-30T06:11:11;11.45;;;3.40;;
78674;SDS011;67990;59.826;30.108;2023-04-30T06:13:39;13.23;;;3.67;;
78674;SDS011;67990;59.826;30.108;2023-04-30T06:16:25;8.03;;;3.07;;
78674;SDS011;67990;59.826;30.108;2023-04-30T06:18:52;4.22;;;1.73;;
78674;SDS011;67990;59.826;30.108;2023-04-30T06:21:37;8.45;;;2.95;;
78674;SDS011;67990;59.826;30.108;2023-04-30T06:27:11;8.10;;;2.22;;
78674;SDS011;67990;59.826;30.108;2023-04-30T06:29:57;4.63;;;1.80;;
78674;SDS011;67990;59.826;30.108;2023-04-30T06:32:25;8.98;;;2.55;;
78674;SDS011;67990;59.826;30.108;2023-04-30T06:35:29;7.82;;;2.30;;
78674;SDS011;67990;59.826;30.108;2023-04-30T06:37:56;5.63;;;2.22;;
78674;SDS011;67990;59.826;30.108;2023-04-30T06:40:23;4.93;;;1.80;;
78674;SDS011;67990;59.826;30.108;2023-04-30T06:42:51;7.10;;;1.63;;
78674;SDS011;67990;59.826;30.108;2023-04-30T06:45:19;5.07;;;1.83;;
78674;SDS011;67990;59.826;30.108;2023-04-30T06:47:46;6.82;;;2.45;;
78674;SDS011;67990;59.826;30.108;2023-04-30T06:50:13;6.95;;;2.38;;
78674;SDS011;67990;59.826;30.108;2023-04-30T06:52:41;5.93;;;1.77;;
78674;SDS011;67990;59.826;30.108;2023-04-30T06:57:55;6.97;;;1.95;;
78674;SDS011;67990;59.826;30.108;2023-04-30T07:00:41;10.25;;;4.32;;
78674;SDS011;67990;59.826;30.108;2023-04-30T07:03:26;16.20;;;9.98;;
78674;SDS011;67990;59.826;30.108;2023-04-30T07:05:53;6.32;;;2.97;;
78674;SDS011;67990;59.826;30.108;2023-04-30T07:08:39;13.93;;;7.20;;
78674;SDS011;67990;59.826;30.108;2023-04-30T07:11:08;21.08;;;13.07;;
78674;SDS011;67990;59.826;30.108;2023-04-30T07:13:37;18.55;;;11.77;;
78674;SDS011;67990;59.826;30.108;2023-04-30T07:16:04;7.93;;;2.65;;
78674;SDS011;67990;59.826;30.108;2023-04-30T07:18:34;6.10;;;2.28;;
78674;SDS011;67990;59.826;30.108;2023-04-30T07:21:02;6.33;;;2.83;;
78674;SDS011;67990;59.826;30.108;2023-04-30T07:23:29;10.05;;;4.60;;
78674;SDS011;67990;59.826;30.108;2023-04-30T07:25:56;11.52;;;7.18;;
78674;SDS011;67990;59.826;30.108;2023-04-30T07:28:44;6.10;;;1.40;;
78674;SDS011;67990;59.826;30.108;2023-04-30T07:31:30;5.53;;;1.60;;
78674;SDS011;67990;59.826;30.108;2023-04-30T07:33:57;6.47;;;1.43;;
78674;SDS011;67990;59.826;30.108;2023-04-30T07:36:43;3.88;;;1.50;;
78674;SDS011;67990;59.826;30.108;2023-04-30T07:39:28;6.82;;;2.20;;
78674;SDS011;67990;59.826;30.108;2023-04-30T07:41:55;4.35;;;1.80;;
78674;SDS011;67990;59.826;30.108;2023-04-30T07:44:24;6.47;;;1.98;;
78674;SDS011;67990;59.826;30.108;2023-04-30T07:50:12;7.40;;;2.05;;
78674;SDS011;67990;59.826;30.108;2023-04-30T07:52:59;5.68;;;2.35;;
78674;SDS011;67990;59.826;30.108;2023-04-30T07:55:27;7.72;;;2.42;;
78674;SDS011;67990;59.826;30.108;2023-04-30T08:00:42;7.70;;;2.00;;
78674;SDS011;67990;59.826;30.108;2023-04-30T08:03:09;7.70;;;2.17;;
78674;SDS011;67990;59.826;30.108;2023-04-30T08:05:53;10.02;;;3.15;;
78674;SDS011;67990;59.826;30.108;2023-04-30T08:08:38;11.18;;;3.85;;
78674;SDS011;67990;59.826;30.108;2023-04-30T08:11:05;9.02;;;3.38;;
78674;SDS011;67990;59.826;30.108;2023-04-30T08:13:32;8.17;;;3.87;;
78674;SDS011;67990;59.826;30.108;2023-04-30T08:16:19;8.43;;;3.05;;
78674;SDS011;67990;59.826;30.108;2023-04-30T08:18:46;7.90;;;2.90;;
78674;SDS011;67990;59.826;30.108;2023-04-30T08:21:14;7.38;;;3.20;;
78674;SDS011;67990;59.826;30.108;2023-04-30T08:23:42;9.05;;;3.53;;
78674;SDS011;67990;59.826;30.108;2023-04-30T08:26:27;6.73;;;2.47;;
78674;SDS011;67990;59.826;30.108;2023-04-30T08:28:55;5.93;;;2.40;;
78674;SDS011;67990;59.826;30.108;2023-04-30T08:31:41;6.43;;;2.53;;
78674;SDS011;67990;59.826;30.108;2023-04-30T08:34:27;17.95;;;2.63;;
78674;SDS011;67990;59.826;30.108;2023-04-30T08:36:54;6.90;;;2.83;;
78674;SDS011;67990;59.826;30.108;2023-04-30T08:39:21;6.37;;;2.10;;
78674;SDS011;67990;59.826;30.108;2023-04-30T08:42:07;6.55;;;2.38;;
78674;SDS011;67990;59.826;30.108;2023-04-30T08:44:35;5.95;;;2.40;;
78674;SDS011;67990;59.826;30.108;2023-04-30T08:47:27;8.65;;;2.88;;
78674;SDS011;67990;59.826;30.108;2023-04-30T08:49:55;6.22;;;2.63;;
78674;SDS011;67990;59.826;30.108;2023-04-30T08:52:22;6.93;;;2.97;;
78674;SDS011;67990;59.826;30.108;2023-04-30T08:54:52;6.90;;;3.20;;
78674;SDS011;67990;59.826;30.108;2023-04-30T08:57:20;6.82;;;3.00;;
78674;SDS011;67990;59.826;30.108;2023-04-30T08:59:47;7.13;;;2.90;;
78674;SDS011;67990;59.826;30.108;2023-04-30T09:02:14;8.75;;;3.00;;
78674;SDS011;67990;59.826;30.108;2023-04-30T09:04:43;6.73;;;2.40;;
78674;SDS011;67990;59.826;30.108;2023-04-30T09:07:11;6.78;;;2.78;;
78674;SDS011;67990;59.826;30.108;2023-04-30T09:12:25;6.82;;;2.85;;
78674;SDS011;67990;59.826;30.108;2023-04-30T09:18:07;6.17;;;2.33;;
78674;SDS011;67990;59.826;30.108;2023-04-30T09:20:54;7.40;;;2.20;;
78674;SDS011;67990;59.826;30.108;2023-04-30T09:26:31;7.65;;;3.10;;
78674;SDS011;67990;59.826;30.108;2023-04-30T09:28:59;7.00;;;2.72;;
78674;SDS011;67990;59.826;30.108;2023-04-30T09:34:36;8.23;;;2.70;;
78674;SDS011;67990;59.826;30.108;2023-04-30T09:37:05;6.13;;;2.55;;
78674;SDS011;67990;59.826;30.108;2023-04-30T09:39:32;9.65;;;4.15;;
78674;SDS011;67990;59.826;30.108;2023-04-30T09:44:46;5.20;;;2.40;;
78674;SDS011;67990;59.826;30.108;2023-04-30T09:47:31;5.32;;;2.58;;
78674;SDS011;67990;59.826;30.108;2023-04-30T09:49:59;5.57;;;2.55;;
78674;SDS011;67990;59.826;30.108;2023-04-30T09:52:48;6.25;;;3.05;;
78674;SDS011;67990;59.826;30.108;2023-04-30T09:55:19;8.38;;;3.45;;
78674;SDS011;67990;59.826;30.108;2023-04-30T09:57:47;7.13;;;3.07;;
78674;SDS011;67990;59.826;30.108;2023-04-30T10:00:33;5.55;;;2.42;;
78674;SDS011;67990;59.826;30.108;2023-04-30T10:03:03;7.28;;;3.15;;
78674;SDS011;67990;59.826;30.108;2023-04-30T10:05:33;7.15;;;3.28;;
78674;SDS011;67990;59.826;30.108;2023-04-30T10:08:23;6.03;;;2.65;;
78674;SDS011;67990;59.826;30.108;2023-04-30T10:10:53;7.87;;;3.20;;
78674;SDS011;67990;59.826;30.108;2023-04-30T10:13:26;8.40;;;3.20;;
78674;SDS011;67990;59.826;30.108;2023-04-30T10:16:14;9.93;;;4.65;;
78674;SDS011;67990;59.826;30.108;2023-04-30T10:18:47;7.38;;;3.83;;
78674;SDS011;67990;59.826;30.108;2023-04-30T10:21:17;8.80;;;3.85;;
78674;SDS011;67990;59.826;30.108;2023-04-30T10:23:49;7.87;;;3.30;;
78674;SDS011;67990;59.826;30.108;2023-04-30T10:26:36;7.95;;;3.80;;
78674;SDS011;67990;59.826;30.108;2023-04-30T10:29:04;10.75;;;5.82;;
78674;SDS011;67990;59.826;30.108;2023-04-30T10:34:58;9.02;;;3.42;;
78674;SDS011;67990;59.826;30.108;2023-04-30T10:37:33;9.10;;;3.33;;
78674;SDS011;67990;59.826;30.108;2023-04-30T10:40:08;8.73;;;3.90;;
78674;SDS011;67990;59.826;30.108;2023-04-30T10:42:35;7.00;;;3.58;;
78674;SDS011;67990;59.826;30.108;2023-04-30T10:45:03;9.73;;;3.35;;
78674;SDS011;67990;59.826;30.108;2023-04-30T10:47:31;9.00;;;3.13;;
78674;SDS011;67990;59.826;30.108;2023-04-30T10:50:16;7.17;;;2.33;;
78674;SDS011;67990;59.826;30.108;2023-04-30T10:52:44;6.03;;;3.03;;
78674;SDS011;67990;59.826;30.108;2023-04-30T10:55:15;6.60;;;2.80;;
78674;SDS011;67990;59.826;30.108;2023-04-30T10:58:00;7.82;;;2.38;;
78674;SDS011;67990;59.826;30.108;2023-04-30T11:00:28;5.80;;;2.58;;
78674;SDS011;67990;59.826;30.108;2023-04-30T11:02:56;5.57;;;2.30;;
78674;SDS011;67990;59.826;30.108;2023-04-30T11:05:46;5.72;;;2.47;;
78674;SDS011;67990;59.826;30.108;2023-04-30T11:08:14;5.75;;;2.80;;
78674;SDS011;67990;59.826;30.108;2023-04-30T11:13:46;6.47;;;2.30;;
78674;SDS011;67990;59.826;30.108;2023-04-30T11:16:32;6.87;;;2.50;;
78674;SDS011;67990;59.826;30.108;2023-04-30T11:19:20;6.07;;;2.33;;
78674;SDS011;67990;59.826;30.108;2023-04-30T11:25:02;6.20;;;2.80;;
78674;SDS011;67990;59.826;30.108;2023-04-30T11:27:32;5.70;;;2.50;;
78674;SDS011;67990;59.826;30.108;2023-04-30T11:32:47;5.68;;;2.40;;
78674;SDS011;67990;59.826;30.108;2023-04-30T11:35:16;5.68;;;2.33;;
78674;SDS011;67990;59.826;30.108;2023-04-30T11:37:45;6.43;;;2.47;;
78674;SDS011;67990;59.826;30.108;2023-04-30T11:40:14;5.28;;;1.92;;
78674;SDS011;67990;59.826;30.108;2023-04-30T11:42:43;6.50;;;2.40;;
78674;SDS011;67990;59.826;30.108;2023-04-30T11:45:29;7.43;;;2.28;;
78674;SDS011;67990;59.826;30.108;2023-04-30T11:48:14;6.30;;;2.58;;
78674;SDS011;67990;59.826;30.108;2023-04-30T11:50:42;4.75;;;1.95;;
78674;SDS011;67990;59.826;30.108;2023-04-30T11:53:10;6.13;;;2.40;;
78674;SDS011;67990;59.826;30.108;2023-04-30T11:55:38;5.87;;;2.27;;
78674;SDS011;67990;59.826;30.108;2023-04-30T11:58:27;6.07;;;2.50;;
78674;SDS011;67990;59.826;30.108;2023-04-30T12:00:58;5.72;;;2.47;;
78674;SDS011;67990;59.826;30.108;2023-04-30T12:03:26;5.72;;;2.30;;
78674;SDS011;67990;59.826;30.108;2023-04-30T12:05:53;9.77;;;4.05;;
78674;SDS011;67990;59.826;30.108;2023-04-30T12:08:20;22.77;;;10.60;;
78674;SDS011;67990;59.826;30.108;2023-04-30T12:13:50;6.82;;;3.22;;
78674;SDS011;67990;59.826;30.108;2023-04-30T12:16:18;5.90;;;2.80;;
78674;SDS011;67990;59.826;30.108;2023-04-30T12:18:45;5.07;;;2.45;;
78674;SDS011;67990;59.826;30.108;2023-04-30T12:21:30;7.37;;;2.47;;
78674;SDS011;67990;59.826;30.108;2023-04-30T12:23:58;5.38;;;2.67;;
78674;SDS011;67990;59.826;30.108;2023-04-30T12:26:32;5.40;;;2.35;;
78674;SDS011;67990;59.826;30.108;2023-04-30T12:29:20;8.43;;;2.67;;
78674;SDS011;67990;59.826;30.108;2023-04-30T12:31:49;6.85;;;3.97;;
78674;SDS011;67990;59.826;30.108;2023-04-30T12:34:16;12.10;;;6.33;;
78674;SDS011;67990;59.826;30.108;2023-04-30T12:37:02;13.40;;;6.80;;
78674;SDS011;67990;59.826;30.108;2023-04-30T12:39:32;12.40;;;6.07;;
78674;SDS011;67990;59.826;30.108;2023-04-30T12:42:18;6.10;;;2.40;;
78674;SDS011;67990;59.826;30.108;2023-04-30T12:44:46;6.60;;;2.40;;
78674;SDS011;67990;59.826;30.108;2023-04-30T12:47:14;5.20;;;2.53;;
78674;SDS011;67990;59.826;30.108;2023-04-30T12:49:42;7.38;;;2.42;;
78674;SDS011;67990;59.826;30.108;2023-04-30T12:55:12;5.53;;;2.20;;
78674;SDS011;67990;59.826;30.108;2023-04-30T12:57:40;5.75;;;2.38;;
78674;SDS011;67990;59.826;30.108;2023-04-30T13:00:09;6.03;;;2.13;;
78674;SDS011;67990;59.826;30.108;2023-04-30T13:02:37;7.80;;;2.90;;
78674;SDS011;67990;59.826;30.108;2023-04-30T13:05:22;4.97;;;2.10;;
78674;SDS011;67990;59.826;30.108;2023-04-30T13:07:51;4.30;;;1.67;;
78674;SDS011;67990;59.826;30.108;2023-04-30T13:10:20;5.75;;;1.95;;
78674;SDS011;67990;59.826;30.108;2023-04-30T13:12:48;5.87;;;1.80;;
78674;SDS011;67990;59.826;30.108;2023-04-30T13:18:40;4.60;;;2.00;;
78674;SDS011;67990;59.826;30.108;2023-04-30T13:21:07;6.00;;;2.20;;
78674;SDS011;67990;59.826;30.108;2023-04-30T13:23:35;7.90;;;2.53;;
78674;SDS011;67990;59.826;30.108;2023-04-30T13:26:02;5.47;;;1.77;;
78674;SDS011;67990;59.826;30.108;2023-04-30T13:28:46;5.57;;;2.20;;
78674;SDS011;67990;59.826;30.108;2023-04-30T13:31:33;7.03;;;2.80;;
78674;SDS011;67990;59.826;30.108;2023-04-30T13:34:37;8.02;;;2.85;;
78674;SDS011;67990;59.826;30.108;2023-04-30T13:39:50;4.93;;;2.00;;
78674;SDS011;67990;59.826;30.108;2023-04-30T13:42:17;4.07;;;1.77;;
78674;SDS011;67990;59.826;30.108;2023-04-30T13:44:44;6.18;;;2.65;;
78674;SDS011;67990;59.826;30.108;2023-04-30T13:47:15;4.85;;;1.95;;
78674;SDS011;67990;59.826;30.108;2023-04-30T13:50:00;4.90;;;1.75;;
78674;SDS011;67990;59.826;30.108;2023-04-30T13:52:27;3.73;;;1.40;;
78674;SDS011;67990;59.826;30.108;2023-04-30T13:55:15;6.38;;;2.42;;
78674;SDS011;67990;59.826;30.108;2023-04-30T13:57:42;5.38;;;2.30;;
78674;SDS011;67990;59.826;30.108;2023-04-30T14:02:56;5.68;;;2.10;;
78674;SDS011;67990;59.826;30.108;2023-04-30T14:08:27;4.30;;;1.58;;
78674;SDS011;67990;59.826;30.108;2023-04-30T14:13:58;4.05;;;1.80;;
78674;SDS011;67990;59.826;30.108;2023-04-30T14:16:25;7.30;;;2.80;;
78674;SDS011;67990;59.826;30.108;2023-04-30T14:18:54;6.03;;;2.23;;
78674;SDS011;67990;59.826;30.108;2023-04-30T14:21:21;5.88;;;1.77;;
78674;SDS011;67990;59.826;30.108;2023-04-30T14:23:48;5.32;;;1.95;;
78674;SDS011;67990;59.826;30.108;2023-04-30T14:26:34;6.13;;;1.92;;
78674;SDS011;67990;59.826;30.108;2023-04-30T14:29:20;5.03;;;1.65;;
78674;SDS011;67990;59.826;30.108;2023-04-30T14:32:05;6.27;;;1.67;;
78674;SDS011;67990;59.826;30.108;2023-04-30T14:34:34;6.20;;;2.20;;
78674;SDS011;67990;59.826;30.108;2023-04-30T14:37:02;5.75;;;1.92;;
78674;SDS011;67990;59.826;30.108;2023-04-30T14:39:29;4.20;;;1.63;;
78674;SDS011;67990;59.826;30.108;2023-04-30T14:41:56;4.35;;;1.33;;
78674;SDS011;67990;59.826;30.108;2023-04-30T14:47:12;4.47;;;1.55;;
78674;SDS011;67990;59.826;30.108;2023-04-30T14:52:26;15.45;;;7.07;;
78674;SDS011;67990;59.826;30.108;2023-04-30T14:54:54;20.73;;;11.18;;
78674;SDS011;67990;59.826;30.108;2023-04-30T14:57:21;8.57;;;3.23;;
78674;SDS011;67990;59.826;30.108;2023-04-30T15:00:08;7.82;;;5.05;;
78674;SDS011;67990;59.826;30.108;2023-04-30T15:02:36;8.88;;;5.63;;
78674;SDS011;67990;59.826;30.108;2023-04-30T15:05:05;7.97;;;5.13;;
78674;SDS011;67990;59.826;30.108;2023-04-30T15:07:33;6.63;;;2.65;;
78674;SDS011;67990;59.826;30.108;2023-04-30T15:10:01;6.40;;;3.60;;
78674;SDS011;67990;59.826;30.108;2023-04-30T15:12:28;6.25;;;2.47;;
78674;SDS011;67990;59.826;30.108;2023-04-30T15:18:01;4.93;;;1.90;;
78674;SDS011;67990;59.826;30.108;2023-04-30T15:20:31;4.90;;;1.85;;
78674;SDS011;67990;59.826;30.108;2023-04-30T15:22:58;5.00;;;1.73;;
78674;SDS011;67990;59.826;30.108;2023-04-30T15:25:25;5.30;;;2.50;;
78674;SDS011;67990;59.826;30.108;2023-04-30T15:27:53;9.77;;;4.13;;
78674;SDS011;67990;59.826;30.108;2023-04-30T15:30:20;8.50;;;3.08;;
78674;SDS011;67990;59.826;30.108;2023-04-30T15:32:48;7.15;;;2.65;;
78674;SDS011;67990;59.826;30.108;2023-04-30T15:35:16;7.97;;;3.03;;
78674;SDS011;67990;59.826;30.108;2023-04-30T15:38:02;7.43;;;2.53;;
78674;SDS011;67990;59.826;30.108;2023-04-30T15:43:33;6.50;;;2.55;;
78674;SDS011;67990;59.826;30.108;2023-04-30T15:46:03;6.03;;;2.28;;
78674;SDS011;67990;59.826;30.108;2023-04-30T15:48:30;5.83;;;2.03;;
78674;SDS011;67990;59.826;30.108;2023-04-30T15:51:15;7.78;;;2.47;;
78674;SDS011;67990;59.826;30.108;2023-04-30T15:53:44;8.63;;;2.60;;
78674;SDS011;67990;59.826;30.108;2023-04-30T15:56:11;10.60;;;2.80;;
78674;SDS011;67990;59.826;30.108;2023-04-30T15:58:57;11.57;;;3.10;;
78674;SDS011;67990;59.826;30.108;2023-04-30T16:01:42;13.47;;;3.20;;
78674;SDS011;67990;59.826;30.108;2023-04-30T16:04:09;8.32;;;2.42;;
78674;SDS011;67990;59.826;30.108;2023-04-30T16:06:37;9.13;;;2.53;;
78674;SDS011;67990;59.826;30.108;2023-04-30T16:09:05;8.48;;;2.38;;
78674;SDS011;67990;59.826;30.108;2023-04-30T16:11:33;11.32;;;2.63;;
78674;SDS011;67990;59.826;30.108;2023-04-30T16:14:01;8.93;;;1.70;;
78674;SDS011;67990;59.826;30.108;2023-04-30T16:16:28;6.13;;;1.30;;
78674;SDS011;67990;59.826;30.108;2023-04-30T16:18:56;6.10;;;1.40;;
78674;SDS011;67990;59.826;30.108;2023-04-30T16:21:23;4.45;;;0.73;;
78674;SDS011;67990;59.826;30.108;2023-04-30T16:26:40;4.20;;;0.80;;
78674;SDS011;67990;59.826;30.108;2023-04-30T16:29:07;6.32;;;0.60;;
78674;SDS011;67990;59.826;30.108;2023-04-30T16:31:35;9.10;;;1.80;;
78674;SDS011;67990;59.826;30.108;2023-04-30T16:34:02;7.95;;;1.55;;
78674;SDS011;67990;59.826;30.108;2023-04-30T16:36:30;6.75;;;1.30;;
78674;SDS011;67990;59.826;30.108;2023-04-30T16:38:57;10.90;;;1.90;;
78674;SDS011;67990;59.826;30.108;2023-04-30T16:41:44;9.95;;;1.88;;
78674;SDS011;67990;59.826;30.108;2023-04-30T16:47:33;8.18;;;1.52;;
78674;SDS011;67990;59.826;30.108;2023-04-30T16:50:00;6.13;;;1.20;;
78674;SDS011;67990;59.826;30.108;2023-04-30T16:52:28;11.67;;;1.70;;
78674;SDS011;67990;59.826;30.108;2023-04-30T16:54:56;8.50;;;1.75;;
78674;SDS011;67990;59.826;30.108;2023-04-30T17:00:28;8.57;;;0.80;;
78674;SDS011;67990;59.826;30.108;2023-04-30T17:02:55;13.00;;;2.38;;
78674;SDS011;67990;59.826;30.108;2023-04-30T17:05:23;13.33;;;2.60;;
78674;SDS011;67990;59.826;30.108;2023-04-30T17:07:50;9.77;;;1.65;;
78674;SDS011;67990;59.826;30.108;2023-04-30T17:13:06;7.50;;;1.67;;